Algoma, Wisconsin
Current Conditions -  °F | °C
As of 11:15 AM on Friday 31 Oct 2014 (Local Time) from KSUE Reporting Station
Overcast Overcast  
Wind Chill: 21°   Ceiling: 3400
Heat Index: 34°   Visibility: 10mi
Dew Point: 25°   Wind: 26mph
Humidity: 70%   Direction: 10°N
Pressure: 30.28"   Gusts: 40mph
Location:  44.61°N, 87.43°W
Report Text: KSUE 311615Z AUTO 01023G35KT 10SM SCT026 BKN034 OVC039 01/M04 A3028 RMK AO1
Loading
Personal Weather Stations






























Interactive Weather Map
Tropical Storm Tracking
New forecast layout! Learn more

10-Day Weather Forecast

Advertisements
Track Severe Weather on mobile